createdAt,value
2022-08-22T00:02:23.687Z,100365.22
2022-08-22T00:02:43.552Z,100379.53
2022-08-22T00:03:15.512Z,100393.59
2022-08-22T00:05:02.934Z,100370.94
2022-08-22T00:07:42.019Z,100369.53
2022-08-22T00:10:21.031Z,100370.97
2022-08-22T00:13:03.859Z,100370.97
2022-08-22T00:15:44.307Z,100366.84
2022-08-22T00:18:18.617Z,100365.41
2022-08-22T00:20:52.591Z,100364.72
2022-08-22T00:23:28.354Z,100359.03
2022-08-22T00:26:02.230Z,100368.09
2022-08-22T00:28:39.327Z,100372.22
2022-08-22T00:31:13.462Z,100363.63
2022-08-22T00:33:47.885Z,100368.44
2022-08-22T00:36:24.890Z,100362.53
2022-08-22T00:39:00.079Z,100373.00
2022-08-22T00:41:44.366Z,100368.59
2022-08-22T00:44:38.622Z,100358.53
2022-08-22T00:47:23.521Z,100359.66
2022-08-22T00:50:31.447Z,100359.91
2022-08-22T00:53:10.944Z,100360.19
2022-08-22T00:55:53.709Z,100360.91
2022-08-22T00:58:45.770Z,100369.44
2022-08-22T01:01:20.128Z,100371.88
2022-08-22T01:04:01.893Z,100367.91
2022-08-22T01:06:38.389Z,100374.88
2022-08-22T01:09:13.394Z,100366.38
2022-08-22T01:11:57.777Z,100365.25
2022-08-22T01:14:38.221Z,100366.81
2022-08-22T01:17:39.085Z,100367.38
2022-08-22T01:20:33.243Z,100365.53
2022-08-22T01:23:42.822Z,100355.47
2022-08-22T01:27:03.719Z,100366.25
2022-08-22T01:30:12.704Z,100366.38
2022-08-22T01:33:12.402Z,100366.81
2022-08-22T01:36:14.486Z,100361.28
2022-08-22T01:39:03.839Z,100361.13
2022-08-22T01:41:47.756Z,100360.16
2022-08-22T01:44:52.753Z,100363.53
2022-08-22T01:47:26.611Z,100360.84
2022-08-22T01:49:59.491Z,100362.41
2022-08-22T01:52:38.686Z,100356.19
2022-08-22T01:55:15.703Z,100350.06
2022-08-22T01:57:53.916Z,100360.84
2022-08-22T02:00:34.631Z,100356.47
2022-08-22T02:03:12.140Z,100359.16
2022-08-22T02:05:49.938Z,100353.06
2022-08-22T02:08:25.732Z,100351.47
2022-08-22T02:11:05.130Z,100354.47
2022-08-22T02:13:54.749Z,100356.56
2022-08-22T02:16:30.656Z,100356.84
2022-08-22T02:19:08.271Z,100354.16
2022-08-22T02:21:45.917Z,100357.13
2022-08-22T02:24:25.079Z,100352.13
2022-08-22T02:27:15.011Z,100348.88
2022-08-22T02:29:49.081Z,100345.59
2022-08-22T02:32:23.070Z,100340.34
2022-08-22T02:35:01.298Z,100334.53
2022-08-22T02:37:39.566Z,100327.72
2022-08-22T02:40:15.196Z,100331.38
2022-08-22T02:42:52.526Z,100334.06
2022-08-22T02:45:29.624Z,100330.41
2022-08-22T02:48:06.216Z,100328.44
2022-08-22T02:50:43.509Z,100325.31
2022-08-22T02:53:17.612Z,100327.72
2022-08-22T02:55:53.780Z,100322.22
2022-08-22T02:58:33.447Z,100316.81
2022-08-22T03:01:17.951Z,100321.22
2022-08-22T03:03:49.935Z,100336.25
2022-08-22T03:06:36.974Z,100328.78
2022-08-22T03:09:20.575Z,100327.91
2022-08-22T03:11:53.460Z,100326.78
2022-08-22T03:14:43.539Z,100317.44
2022-08-22T03:17:19.274Z,100312.31
2022-08-22T03:19:55.834Z,100313.44
2022-08-22T03:22:33.117Z,100313.00
2022-08-22T03:25:08.340Z,100311.56
2022-08-22T03:27:42.736Z,100318.22
2022-08-22T03:30:20.903Z,100307.75
2022-08-22T03:32:54.538Z,100309.16
2022-08-22T03:35:38.003Z,100315.66
2022-08-22T03:38:22.131Z,100312.50
2022-08-22T03:41:21.636Z,100310.81
2022-08-22T03:44:08.155Z,100310.25
2022-08-22T03:47:18.794Z,100313.78
2022-08-22T03:50:12.095Z,100307.69
2022-08-22T03:53:18.439Z,100299.03
2022-08-22T03:56:18.565Z,100308.50
2022-08-22T04:02:00.017Z,100296.69
2022-08-22T04:04:54.393Z,100284.81
2022-08-22T04:07:38.706Z,100304.41
2022-08-22T04:10:44.187Z,100307.06
2022-08-22T04:13:30.161Z,100301.69
2022-08-22T04:16:10.644Z,100310.38
2022-08-22T04:18:55.596Z,100309.66
2022-08-22T04:21:57.333Z,100312.97
2022-08-22T04:24:52.133Z,100314.34
2022-08-22T04:27:30.762Z,100315.59
2022-08-22T04:30:07.290Z,100308.47
2022-08-22T04:32:40.277Z,100313.63
2022-08-22T04:35:12.834Z,100305.47
2022-08-22T04:37:48.253Z,100314.91
2022-08-22T04:40:24.685Z,100303.19
2022-08-22T04:43:01.053Z,100310.88
2022-08-22T04:45:36.551Z,100305.97
2022-08-22T04:48:11.001Z,100309.81
2022-08-22T04:50:45.268Z,100307.38
2022-08-22T04:53:23.867Z,100318.91
2022-08-22T04:56:10.193Z,100318.78
2022-08-22T04:58:47.814Z,100323.94
2022-08-22T05:01:20.526Z,100319.09
2022-08-22T05:03:57.398Z,100314.84
2022-08-22T05:06:30.554Z,100316.94
2022-08-22T05:09:06.918Z,100325.19
2022-08-22T05:11:37.822Z,100324.53
2022-08-22T05:14:15.305Z,100325.81
2022-08-22T05:16:46.949Z,100330.72
2022-08-22T05:19:27.035Z,100332.97
2022-08-22T05:21:59.803Z,100334.34
2022-08-22T05:24:35.053Z,100332.06
2022-08-22T05:27:13.075Z,100336.84
2022-08-22T05:29:49.133Z,100331.03
2022-08-22T05:32:23.011Z,100335.09
2022-08-22T05:34:54.679Z,100336.34
2022-08-22T05:37:27.552Z,100329.34
2022-08-22T05:40:01.070Z,100323.41
2022-08-22T05:42:33.638Z,100322.94
2022-08-22T05:45:12.046Z,100326.13
2022-08-22T05:47:43.804Z,100332.22
2022-08-22T05:50:17.221Z,100337.47
2022-08-22T05:53:06.195Z,100334.78
2022-08-22T05:55:41.537Z,100326.97
2022-08-22T05:58:39.126Z,100327.09
2022-08-22T06:01:22.643Z,100335.25
2022-08-22T06:04:00.476Z,100326.97
2022-08-22T06:06:31.435Z,100329.19
2022-08-22T06:09:05.198Z,100335.69
2022-08-22T06:11:39.130Z,100341.09
2022-08-22T06:14:13.864Z,100336.63
2022-08-22T06:16:51.259Z,100343.13
2022-08-22T06:19:22.220Z,100344.72
2022-08-22T06:21:53.917Z,100344.03
2022-08-22T06:24:27.001Z,100345.66
2022-08-22T06:27:01.671Z,100351.41
2022-08-22T06:29:36.564Z,100359.56
2022-08-22T06:32:14.988Z,100351.81
2022-08-22T06:34:46.702Z,100363.66
2022-08-22T06:37:20.429Z,100364.91
2022-08-22T06:39:52.478Z,100353.28
2022-08-22T06:42:25.683Z,100359.25
2022-08-22T06:45:00.143Z,100351.56
2022-08-22T06:47:35.582Z,100357.78
2022-08-22T06:50:13.880Z,100360.06
2022-08-22T06:52:54.130Z,100358.63
2022-08-22T06:55:24.884Z,100358.91
2022-08-22T06:57:57.886Z,100366.81
2022-08-22T07:00:28.207Z,100356.84
2022-08-22T07:03:03.461Z,100358.06
2022-08-22T07:05:38.787Z,100347.13
2022-08-22T07:08:09.790Z,100352.03
2022-08-22T07:10:39.783Z,100351.03
2022-08-22T07:13:14.104Z,100350.66
2022-08-22T07:15:45.426Z,100338.97
2022-08-22T07:18:23.422Z,100342.56
2022-08-22T07:20:55.604Z,100335.75
2022-08-22T07:23:33.238Z,100340.06
2022-08-22T07:26:18.442Z,100343.88
2022-08-22T07:28:51.291Z,100340.53
2022-08-22T07:31:35.381Z,100342.13
2022-08-22T07:34:17.486Z,100348.19
2022-08-22T07:36:50.870Z,100342.75
2022-08-22T07:39:28.269Z,100341.25
2022-08-22T07:42:06.917Z,100344.28
2022-08-22T07:44:43.637Z,100336.16
2022-08-22T07:47:26.034Z,100351.81
2022-08-22T07:50:02.285Z,100359.31
2022-08-22T07:52:38.565Z,100356.25
2022-08-22T07:55:15.568Z,100353.38
2022-08-22T07:57:49.668Z,100354.06
2022-08-22T08:00:22.505Z,100358.19
2022-08-22T08:02:54.359Z,100352.81
2022-08-22T08:05:28.876Z,100346.16
2022-08-22T08:07:59.787Z,100345.88
2022-08-22T08:10:34.507Z,100353.84
2022-08-22T08:13:07.011Z,100347.72
2022-08-22T08:15:38.259Z,100340.88
2022-08-22T08:18:11.732Z,100344.63
2022-08-22T08:20:44.055Z,100327.97
2022-08-22T08:23:23.796Z,100333.13
2022-08-22T08:25:58.794Z,100329.88
2022-08-22T08:28:35.340Z,100326.38
2022-08-22T08:31:10.272Z,100321.28
2022-08-22T08:33:42.651Z,100321.63
2022-08-22T08:36:26.834Z,100314.66
2022-08-22T08:39:00.733Z,100315.13
2022-08-22T08:41:52.259Z,100314.00
2022-08-22T08:44:38.624Z,100310.16
2022-08-22T08:47:19.631Z,100312.63
2022-08-22T08:50:02.549Z,100308.78
2022-08-22T08:53:03.881Z,100303.56
2022-08-22T08:55:46.109Z,100304.41
2022-08-22T08:58:34.836Z,100297.75
2022-08-22T09:01:27.528Z,100285.31
2022-08-22T09:04:21.390Z,100288.91
2022-08-22T09:07:08.460Z,100288.47
2022-08-22T09:09:52.292Z,100286.06
2022-08-22T09:15:54.969Z,100275.31
2022-08-22T09:18:58.772Z,100289.09
2022-08-22T09:21:47.128Z,100283.38
2022-08-22T09:24:46.934Z,100282.16
2022-08-22T09:27:24.411Z,100266.81
2022-08-22T09:30:00.059Z,100267.25
2022-08-22T09:32:39.138Z,100264.81
2022-08-22T09:35:17.157Z,100264.69
2022-08-22T09:37:59.075Z,100263.63
2022-08-22T09:40:32.123Z,100259.50
2022-08-22T09:43:08.824Z,100261.16
2022-08-22T09:45:50.222Z,100249.69
2022-08-22T09:48:34.481Z,100261.97
2022-08-22T09:51:32.511Z,100253.31
2022-08-22T09:54:15.843Z,100253.16
2022-08-22T09:56:58.372Z,100249.41
2022-08-22T09:59:38.854Z,100248.31
2022-08-22T10:02:19.643Z,100254.88
2022-08-22T10:04:53.869Z,100249.72
2022-08-22T10:07:42.042Z,100250.22
2022-08-22T10:10:28.378Z,100244.69
2022-08-22T10:13:10.427Z,100246.94
2022-08-22T10:15:48.779Z,100246.00
2022-08-22T10:18:27.233Z,100243.13
2022-08-22T10:21:08.121Z,100239.59
2022-08-22T10:23:41.448Z,100239.28
2022-08-22T10:26:26.919Z,100239.47
2022-08-22T10:28:59.825Z,100240.81
2022-08-22T10:31:52.744Z,100240.69
2022-08-22T10:34:33.009Z,100237.63
2022-08-22T10:37:08.483Z,100233.19
2022-08-22T10:39:57.991Z,100233.97
2022-08-22T10:42:31.203Z,100241.09
2022-08-22T10:45:23.921Z,100232.59
2022-08-22T10:48:37.274Z,100234.03
2022-08-22T10:51:19.266Z,100223.09
2022-08-22T10:53:59.824Z,100227.94
2022-08-22T10:56:34.370Z,100217.88
2022-08-22T10:59:11.472Z,100222.44
2022-08-22T11:01:43.585Z,100220.34
2022-08-22T11:04:28.014Z,100222.44
2022-08-22T11:07:05.502Z,100218.31
2022-08-22T11:09:42.322Z,100219.66
2022-08-22T11:12:19.353Z,100209.63
2022-08-22T11:15:07.813Z,100211.25
2022-08-22T11:18:14.198Z,100207.41
2022-08-22T11:20:55.193Z,100202.31
2022-08-22T11:23:31.806Z,100209.88
2022-08-22T11:26:09.301Z,100201.88
2022-08-22T11:29:14.584Z,100206.38
2022-08-22T11:31:52.179Z,100200.69
2022-08-22T11:34:33.940Z,100210.19
2022-08-22T11:37:11.705Z,100203.06
2022-08-22T11:39:47.630Z,100202.81
2022-08-22T11:42:21.807Z,100196.72
2022-08-22T11:44:56.564Z,100198.59
2022-08-22T11:47:29.107Z,100199.22
2022-08-22T11:50:01.174Z,100201.13
2022-08-22T11:52:54.307Z,100195.19
2022-08-22T11:55:32.728Z,100193.34
2022-08-22T11:58:13.727Z,100190.59
2022-08-22T12:00:50.095Z,100203.06
2022-08-22T12:03:30.280Z,100191.94
2022-08-22T12:06:04.431Z,100185.59
2022-08-22T12:09:16.056Z,100192.97
2022-08-22T12:11:59.841Z,100187.28
2022-08-22T12:14:33.124Z,100187.25
2022-08-22T12:17:22.844Z,100184.97
2022-08-22T12:20:16.328Z,100188.09
2022-08-22T12:23:11.211Z,100175.66
2022-08-22T12:25:56.193Z,100174.78
2022-08-22T12:28:34.297Z,100178.75
2022-08-22T12:31:11.334Z,100182.59
2022-08-22T12:33:50.427Z,100178.59
2022-08-22T12:36:45.442Z,100172.47
2022-08-22T12:39:40.316Z,100169.28
2022-08-22T12:42:24.448Z,100168.69
2022-08-22T12:45:09.079Z,100172.50
2022-08-22T12:47:47.536Z,100167.06
2022-08-22T12:50:25.017Z,100164.56
2022-08-22T12:53:21.131Z,100165.38
2022-08-22T12:56:04.308Z,100153.16
2022-08-22T12:58:46.087Z,100154.84
2022-08-22T13:01:34.209Z,100163.06
2022-08-22T13:04:04.980Z,100158.84
2022-08-22T13:06:55.560Z,100156.31
2022-08-22T13:09:30.780Z,100156.94
2022-08-22T13:12:03.988Z,100151.47
2022-08-22T13:14:34.127Z,100159.88
2022-08-22T13:17:15.233Z,100152.94
2022-08-22T13:20:12.307Z,100156.72
2022-08-22T13:22:45.418Z,100154.81
2022-08-22T13:25:25.936Z,100150.41
2022-08-22T13:27:59.347Z,100156.50
2022-08-22T13:30:33.207Z,100152.31
2022-08-22T13:33:10.976Z,100149.78
2022-08-22T13:35:45.452Z,100149.16
2022-08-22T13:38:25.919Z,100150.63
2022-08-22T13:40:58.106Z,100143.38
2022-08-22T13:43:30.393Z,100146.25
2022-08-22T13:46:02.411Z,100149.00
2022-08-22T13:48:49.889Z,100153.47
2022-08-22T13:51:26.058Z,100150.56
2022-08-22T13:54:02.373Z,100145.50
2022-08-22T13:56:38.483Z,100139.84
2022-08-22T13:59:47.070Z,100135.81
2022-08-22T14:02:15.330Z,100137.09
2022-08-22T14:04:50.919Z,100134.56
2022-08-22T14:07:32.448Z,100140.44
2022-08-22T14:10:04.734Z,100137.50
2022-08-22T14:12:50.588Z,100137.69
2022-08-22T14:15:25.847Z,100135.78
2022-08-22T14:18:03.488Z,100125.91
2022-08-22T14:20:35.881Z,100124.84
2022-08-22T14:23:08.260Z,100122.97
2022-08-22T14:25:39.746Z,100129.09
2022-08-22T14:28:11.804Z,100124.47
2022-08-22T14:30:59.383Z,100124.69
2022-08-22T14:33:36.151Z,100124.69
2022-08-22T14:36:19.977Z,100124.88
2022-08-22T14:38:53.617Z,100121.94
2022-08-22T14:41:52.333Z,100117.72
2022-08-22T14:44:28.589Z,100116.00
2022-08-22T14:47:00.730Z,100118.56
2022-08-22T14:49:38.842Z,100109.09
2022-08-22T14:52:19.794Z,100110.09
2022-08-22T14:54:51.055Z,100105.25
2022-08-22T14:57:21.153Z,100100.75
2022-08-22T14:59:53.135Z,100099.91
2022-08-22T15:02:28.252Z,100099.66
2022-08-22T15:05:01.568Z,100104.28
2022-08-22T15:07:36.448Z,100096.28
2022-08-22T15:10:11.794Z,100091.06
2022-08-22T15:12:48.369Z,100091.28
2022-08-22T15:15:31.043Z,100091.28
2022-08-22T15:18:01.681Z,100084.34
2022-08-22T15:20:38.197Z,100084.75
2022-08-22T15:23:23.066Z,100079.69
2022-08-22T15:26:00.897Z,100083.50
2022-08-22T15:28:52.619Z,100074.22
2022-08-22T15:31:23.198Z,100076.34
2022-08-22T15:33:53.267Z,100076.75
2022-08-22T15:36:24.868Z,100081.56
2022-08-22T15:38:59.469Z,100071.66
2022-08-22T15:41:41.069Z,100070.84
2022-08-22T15:44:32.684Z,100069.16
2022-08-22T15:47:24.306Z,100067.03
2022-08-22T15:49:59.614Z,100068.03
2022-08-22T15:52:31.417Z,100068.19
2022-08-22T15:55:21.159Z,100064.97
2022-08-22T15:57:53.969Z,100071.00
2022-08-22T16:00:30.132Z,100061.03
2022-08-22T16:03:03.677Z,100062.00
2022-08-22T16:05:45.009Z,100070.94
2022-08-22T16:08:16.547Z,100081.13
2022-08-22T16:10:51.990Z,100064.25
2022-08-22T16:13:40.163Z,100072.97
2022-08-22T16:16:14.477Z,100067.84
2022-08-22T16:19:17.957Z,100066.28
2022-08-22T16:22:12.379Z,100078.56
2022-08-22T16:25:01.106Z,100075.66
2022-08-22T16:27:33.435Z,100078.69
2022-08-22T16:30:07.264Z,100079.66
2022-08-22T16:32:37.047Z,100073.50
2022-08-22T16:35:07.252Z,100071.72
2022-08-22T16:37:52.049Z,100070.78
2022-08-22T16:40:27.495Z,100074.44
2022-08-22T16:43:18.539Z,100076.41
2022-08-22T16:45:48.679Z,100069.56
2022-08-22T16:48:35.486Z,100068.44
2022-08-22T16:51:08.328Z,100071.91
2022-08-22T16:54:06.998Z,100068.91
2022-08-22T16:56:42.766Z,100078.47
2022-08-22T16:59:42.099Z,100066.13
2022-08-22T17:02:46.100Z,100064.81
2022-08-22T17:05:30.392Z,100063.19
2022-08-22T17:08:10.361Z,100061.88
2022-08-22T17:10:51.891Z,100054.25
2022-08-22T17:13:32.780Z,100061.25
2022-08-22T17:16:26.700Z,100059.09
2022-08-22T17:19:14.038Z,100055.44
2022-08-22T17:21:50.673Z,100048.00
2022-08-22T17:24:34.017Z,100065.09
2022-08-22T17:27:10.049Z,100058.84
2022-08-22T17:29:55.981Z,100057.59
2022-08-22T17:32:35.885Z,100049.03
2022-08-22T17:35:16.225Z,100052.97
2022-08-22T17:37:54.468Z,100055.47
2022-08-22T17:40:31.760Z,100060.28
2022-08-22T17:43:26.966Z,100062.03
2022-08-22T17:46:13.241Z,100058.84
2022-08-22T17:48:49.413Z,100056.06
2022-08-22T17:51:28.478Z,100060.31
2022-08-22T17:54:03.451Z,100062.94
2022-08-22T17:56:41.842Z,100069.09
2022-08-22T17:59:20.327Z,100073.19
2022-08-22T18:01:53.344Z,100071.34
2022-08-22T18:04:32.367Z,100075.25
2022-08-22T18:07:24.968Z,100076.25
2022-08-22T18:09:57.491Z,100085.25
2022-08-22T18:12:34.306Z,100080.50
2022-08-22T18:15:10.214Z,100084.56
2022-08-22T18:17:43.292Z,100088.63
2022-08-22T18:20:20.169Z,100081.84
2022-08-22T18:22:53.314Z,100084.91
2022-08-22T18:25:42.450Z,100085.91
2022-08-22T18:28:17.102Z,100085.09
2022-08-22T18:30:56.076Z,100081.50
2022-08-22T18:33:33.023Z,100087.94
2022-08-22T18:36:12.896Z,100078.97
2022-08-22T18:38:52.390Z,100087.44
2022-08-22T18:41:30.343Z,100090.31
2022-08-22T18:44:01.765Z,100088.97
2022-08-22T18:46:35.180Z,100088.44
2022-08-22T18:49:15.985Z,100092.50
2022-08-22T18:52:23.389Z,100091.31
2022-08-22T18:55:05.690Z,100096.03
2022-08-22T18:57:48.528Z,100103.16
2022-08-22T19:00:19.681Z,100102.50
2022-08-22T19:03:16.413Z,100112.28
2022-08-22T19:06:21.522Z,100111.78
2022-08-22T19:09:18.505Z,100105.50
2022-08-22T19:11:54.528Z,100117.50
2022-08-22T19:14:36.172Z,100111.22
2022-08-22T19:17:19.995Z,100117.81
2022-08-22T19:20:04.800Z,100123.06
2022-08-22T19:22:35.937Z,100124.41
2022-08-22T19:25:21.017Z,100127.44
2022-08-22T19:28:26.738Z,100127.78
2022-08-22T19:31:34.759Z,100125.72
2022-08-22T19:34:41.185Z,100126.22
2022-08-22T19:37:33.314Z,100132.97
2022-08-22T19:40:05.203Z,100133.81
2022-08-22T19:42:43.213Z,100127.38
2022-08-22T19:45:26.526Z,100134.50
2022-08-22T19:48:00.156Z,100138.53
2022-08-22T19:50:31.767Z,100135.47
2022-08-22T19:53:27.005Z,100128.69
2022-08-22T19:56:08.154Z,100121.75
2022-08-22T19:58:50.507Z,100129.03
2022-08-22T20:01:41.097Z,100126.47
2022-08-22T20:04:22.122Z,100133.06
2022-08-22T20:06:58.857Z,100126.28
2022-08-22T20:09:39.146Z,100125.59
2022-08-22T20:12:15.718Z,100133.69
2022-08-22T20:14:49.901Z,100128.81
2022-08-22T20:17:41.317Z,100129.84
2022-08-22T20:20:17.685Z,100130.56
2022-08-22T20:22:52.835Z,100139.84
2022-08-22T20:25:43.136Z,100137.59
2022-08-22T20:28:35.944Z,100139.09
2022-08-22T20:31:12.984Z,100133.16
2022-08-22T20:33:46.032Z,100135.19
2022-08-22T20:36:28.081Z,100134.34
2022-08-22T20:39:03.211Z,100133.66
2022-08-22T20:41:36.689Z,100131.28
2022-08-22T20:44:12.306Z,100139.56
2022-08-22T20:46:55.265Z,100128.16
2022-08-22T20:49:28.522Z,100132.03
2022-08-22T20:51:59.982Z,100123.72
2022-08-22T20:54:31.207Z,100130.44
2022-08-22T20:57:03.054Z,100123.84
2022-08-22T20:59:37.479Z,100126.31
2022-08-22T21:02:17.284Z,100123.94
2022-08-22T21:04:53.196Z,100118.16
2022-08-22T21:07:24.896Z,100111.84
2022-08-22T21:10:12.190Z,100113.63
2022-08-22T21:12:41.810Z,100114.91
2022-08-22T21:15:12.873Z,100116.81
2022-08-22T21:17:45.041Z,100114.06
2022-08-22T21:20:22.777Z,100115.66
2022-08-22T21:22:52.761Z,100115.56
2022-08-22T21:25:22.408Z,100118.44
2022-08-22T21:27:53.489Z,100111.22
2022-08-22T21:30:25.904Z,100119.66
2022-08-22T21:32:58.185Z,100119.91
2022-08-22T21:35:31.218Z,100115.59
2022-08-22T21:38:02.116Z,100114.66
2022-08-22T21:40:34.685Z,100120.47
2022-08-22T21:43:08.674Z,100117.44
2022-08-22T21:45:45.402Z,100123.06
2022-08-22T21:48:38.629Z,100129.56
2022-08-22T21:51:24.855Z,100118.44
2022-08-22T21:54:18.513Z,100123.50
2022-08-22T21:56:44.079Z,100119.47
2022-08-22T21:59:25.049Z,100123.19
2022-08-22T22:01:55.544Z,100125.53
2022-08-22T22:04:27.866Z,100121.44
2022-08-22T22:06:57.980Z,100127.31
2022-08-22T22:09:27.610Z,100117.31
2022-08-22T22:11:57.192Z,100121.31
2022-08-22T22:14:26.822Z,100129.22
2022-08-22T22:16:56.436Z,100124.53
2022-08-22T22:19:29.168Z,100124.94
2022-08-22T22:21:58.765Z,100127.47
2022-08-22T22:24:28.379Z,100127.53
2022-08-22T22:26:58.117Z,100134.38
2022-08-22T22:29:27.851Z,100130.75
2022-08-22T22:31:57.556Z,100129.38
2022-08-22T22:34:30.107Z,100129.97
2022-08-22T22:36:59.793Z,100122.34
2022-08-22T22:39:29.397Z,100133.16
2022-08-22T22:41:59.008Z,100131.03
2022-08-22T22:44:28.748Z,100133.22
2022-08-22T22:46:59.225Z,100130.38
2022-08-22T22:49:31.876Z,100139.22
2022-08-22T22:52:02.108Z,100126.78
2022-08-22T22:54:34.114Z,100133.63
2022-08-22T22:57:03.779Z,100133.03
2022-08-22T22:59:34.148Z,100142.28
2022-08-22T23:02:07.677Z,100143.88
2022-08-22T23:04:42.447Z,100140.59
2022-08-22T23:07:13.069Z,100131.09
2022-08-22T23:09:45.140Z,100134.41
2022-08-22T23:12:15.343Z,100124.91
2022-08-22T23:14:44.975Z,100131.41
2022-08-22T23:17:14.612Z,100128.28
2022-08-22T23:19:47.721Z,100132.25
2022-08-22T23:22:17.511Z,100136.53
2022-08-22T23:24:47.121Z,100142.34
2022-08-22T23:27:16.789Z,100136.69
2022-08-22T23:29:46.646Z,100141.66
2022-08-22T23:32:17.369Z,100138.81
2022-08-22T23:34:50.832Z,100133.69
2022-08-22T23:37:23.006Z,100134.13
2022-08-22T23:39:52.725Z,100140.25
2022-08-22T23:42:22.345Z,100142.50
2022-08-22T23:44:52.002Z,100143.91
2022-08-22T23:47:21.597Z,100147.03
2022-08-22T23:49:53.793Z,100140.25
2022-08-22T23:52:23.487Z,100147.06
2022-08-22T23:54:55.468Z,100144.75
2022-08-22T23:57:27.479Z,100147.03
2022-08-22T23:59:58.497Z,100142.38
